Time;durP1;ratioP1;P1;durP2;ratioP2;P2;SDS_P1;SDS_P2;PMS_P1;PMS_P2;Temp;Humidity;BMP_temperature;BMP_pressure;BME280_temperature;BME280_humidity;BME280_pressure;Samples;Min_cycle;Max_cycle;Signal;HPM_P1;HPM_P2
2022/12/13 00:01:28;;;;;;;24.67;16.13;;;-6.70;99.90;;;;;;5077214;28;20365;-77
2022/12/13 00:03:55;;;;;;;21.77;14.27;;;-6.80;99.90;;;;;;5069073;28;20175;-77
2022/12/13 00:06:21;;;;;;;22.93;14.87;;;-6.80;99.90;;;;;;5069070;28;20253;-76
2022/12/13 00:08:47;;;;;;;22.63;15.57;;;-6.90;99.90;;;;;;5076638;28;20309;-76
2022/12/13 00:11:13;;;;;;;22.90;15.93;;;-7.00;99.90;;;;;;5083439;28;20185;-75
2022/12/13 00:13:40;;;;;;;23.10;15.50;;;-7.10;99.90;;;;;;5070010;28;20183;-76
2022/12/13 00:16:10;;;;;;;24.10;14.03;;;-7.20;99.90;;;;;;5071236;28;20262;-77
2022/12/13 00:18:36;;;;;;;24.47;15.50;;;-7.20;99.90;;;;;;5075348;28;20604;-77
2022/12/13 00:21:11;;;;;;;25.03;14.57;;;-7.20;99.90;;;;;;5074804;28;20262;-76
2022/12/13 00:23:37;;;;;;;19.03;13.67;;;-7.10;99.90;;;;;;5075932;28;20178;-76
2022/12/13 00:26:08;;;;;;;22.03;15.10;;;-7.00;99.90;;;;;;5074442;28;20233;-76
2022/12/13 00:28:34;;;;;;;19.90;13.83;;;-7.00;99.90;;;;;;5070840;28;20195;-76
2022/12/13 00:31:01;;;;;;;21.07;13.90;;;-7.10;99.90;;;;;;5077475;28;20261;-77
2022/12/13 00:33:27;;;;;;;21.53;14.57;;;-7.10;99.90;;;;;;5074380;28;20728;-77
2022/12/13 00:35:53;;;;;;;19.20;14.70;;;-7.10;99.90;;;;;;5077543;28;20266;-76
2022/12/13 00:38:19;;;;;;;24.07;14.50;;;-7.10;99.90;;;;;;5078861;28;20539;-77
2022/12/13 00:40:45;;;;;;;19.83;14.30;;;-7.10;99.90;;;;;;5078925;28;20278;-77
2022/12/13 00:43:11;;;;;;;19.27;13.73;;;-7.10;99.90;;;;;;5078182;28;20654;-77
2022/12/13 00:45:40;;;;;;;21.07;14.00;;;-7.10;99.90;;;;;;5076389;28;20203;-77
2022/12/13 00:48:06;;;;;;;22.07;14.03;;;-7.20;99.90;;;;;;5072636;28;20219;-76
2022/12/13 00:50:32;;;;;;;22.77;15.13;;;-7.20;99.90;;;;;;5078548;28;20299;-77
2022/12/13 00:52:59;;;;;;;24.00;15.33;;;-7.30;99.90;;;;;;5076714;28;20180;-77
2022/12/13 00:55:28;;;;;;;22.90;14.70;;;-7.40;99.90;;;;;;5077719;28;20187;-77
2022/12/13 00:57:54;;;;;;;25.57;14.73;;;-7.40;99.90;;;;;;5079917;28;20725;-79
2022/12/13 01:00:20;;;;;;;20.53;14.67;;;-7.40;99.90;;;;;;5072464;28;20261;-77
2022/12/13 01:02:46;;;;;;;18.23;13.13;;;-7.50;99.90;;;;;;5076705;28;20186;-77
2022/12/13 01:05:12;;;;;;;22.03;13.10;;;-7.50;99.90;;;;;;5072333;28;20670;-80
2022/12/13 01:07:39;;;;;;;20.57;13.77;;;-7.50;99.90;;;;;;5079496;28;20625;-76
2022/12/13 01:10:06;;;;;;;17.10;13.60;;;-7.50;99.90;;;;;;5076079;28;20743;-76
2022/12/13 01:12:35;;;;;;;22.17;13.53;;;-7.50;99.90;;;;;;5078426;28;20210;-77
2022/12/13 01:15:01;;;;;;;20.00;13.97;;;-7.40;99.90;;;;;;5079084;28;20251;-77
2022/12/13 01:17:27;;;;;;;21.40;14.27;;;-7.40;99.90;;;;;;5078691;28;20206;-76
2022/12/13 01:19:52;;;;;;;21.00;13.53;;;-7.40;99.90;;;;;;5077666;28;20190;-75
2022/12/13 01:22:28;;;;;;;21.07;13.33;;;-7.40;99.90;;;;;;5075533;28;20229;-76
2022/12/13 01:24:53;;;;;;;26.30;15.93;;;-7.50;99.90;;;;;;5075103;28;20231;-76
2022/12/13 01:27:19;;;;;;;22.67;14.87;;;-7.60;99.90;;;;;;5076348;28;20206;-75
2022/12/13 01:29:45;;;;;;;23.13;14.57;;;-7.60;99.90;;;;;;5069016;28;20209;-76
2022/12/13 01:32:11;;;;;;;25.37;16.47;;;-7.70;99.90;;;;;;5075068;28;20187;-75
2022/12/13 01:34:37;;;;;;;18.60;13.63;;;-7.70;99.90;;;;;;5084000;28;20186;-75
2022/12/13 01:37:02;;;;;;;21.63;14.37;;;-7.60;99.90;;;;;;5076959;28;20179;-76
2022/12/13 01:39:28;;;;;;;21.33;15.23;;;-7.60;99.90;;;;;;5077225;28;20229;-76
2022/12/13 01:42:08;;;;;;;23.17;14.03;;;-7.60;99.90;;;;;;5075247;28;20176;-77
2022/12/13 01:44:52;;;;;;;21.23;14.63;;;-7.60;99.90;;;;;;5067547;28;20183;-76
2022/12/13 01:47:42;;;;;;;20.20;13.83;;;-7.60;99.90;;;;;;5077580;28;20195;-76
2022/12/13 01:50:16;;;;;;;21.33;13.87;;;-7.60;99.90;;;;;;5081634;28;20218;-76
2022/12/13 01:52:44;;;;;;;14.70;11.70;;;-7.70;99.90;;;;;;5075744;28;20171;-75
2022/12/13 01:55:11;;;;;;;18.23;12.20;;;-7.70;99.90;;;;;;5082599;28;20179;-77
2022/12/13 01:57:39;;;;;;;15.70;11.50;;;-7.70;99.90;;;;;;5086172;28;20227;-77
2022/12/13 02:00:06;;;;;;;15.43;10.60;;;-7.80;99.90;;;;;;5077411;28;20650;-76
2022/12/13 02:02:32;;;;;;;16.87;11.57;;;-7.80;99.90;;;;;;5078801;28;20227;-75
2022/12/13 02:05:10;;;;;;;15.00;11.10;;;-7.80;99.90;;;;;;5068906;28;20583;-75
2022/12/13 02:07:39;;;;;;;14.87;11.17;;;-7.70;99.90;;;;;;5067935;28;20655;-77
2022/12/13 02:10:06;;;;;;;16.33;11.13;;;-7.70;99.90;;;;;;5071649;28;20196;-76
2022/12/13 02:12:38;;;;;;;15.73;11.13;;;-7.70;99.90;;;;;;5072788;28;20576;-77
2022/12/13 02:15:11;;;;;;;17.13;10.57;;;-7.80;99.90;;;;;;5086377;28;20708;-77
2022/12/13 02:18:04;;;;;;;13.83;11.43;;;-7.80;99.90;;;;;;5069229;28;20711;-78
2022/12/13 02:21:14;;;;;;;17.27;12.50;;;-7.70;99.90;;;;;;5072814;28;20245;-76
2022/12/13 02:24:08;;;;;;;17.60;11.37;;;-7.70;99.90;;;;;;5065996;28;20391;-76
2022/12/13 02:27:10;;;;;;;17.13;11.87;;;-7.70;99.90;;;;;;5080480;28;20180;-76
2022/12/13 02:29:39;;;;;;;21.03;13.43;;;-7.70;99.90;;;;;;5067665;28;20205;-76
2022/12/13 02:32:30;;;;;;;20.37;13.87;;;-7.60;99.90;;;;;;5079278;28;20250;-76
2022/12/13 02:35:14;;;;;;;22.43;13.93;;;-7.60;99.90;;;;;;5075486;28;20176;-75
2022/12/13 02:38:08;;;;;;;23.57;13.33;;;-7.60;99.90;;;;;;5072850;28;20163;-77
2022/12/13 02:40:45;;;;;;;23.20;13.50;;;-7.50;99.90;;;;;;5062248;28;20191;-76
2022/12/13 02:43:34;;;;;;;16.13;11.30;;;-7.40;99.90;;;;;;5079216;28;20178;-75
2022/12/13 02:46:02;;;;;;;17.40;11.70;;;-7.30;99.90;;;;;;5077869;28;20266;-76
2022/12/13 02:48:31;;;;;;;16.60;11.33;;;-7.20;99.90;;;;;;5072052;28;20207;-76
2022/12/13 02:50:59;;;;;;;17.97;12.90;;;-7.00;99.90;;;;;;5069292;28;20179;-75
2022/12/13 02:53:26;;;;;;;17.07;11.60;;;-6.90;99.90;;;;;;5067795;28;20653;-76
2022/12/13 02:55:51;;;;;;;17.33;12.37;;;-6.70;99.90;;;;;;5073752;28;20723;-75
2022/12/13 02:58:22;;;;;;;17.13;11.33;;;-6.50;99.90;;;;;;5075486;28;20278;-77
2022/12/13 03:01:10;;;;;;;18.00;11.57;;;-6.40;99.90;;;;;;5077955;28;20175;-77
2022/12/13 03:03:54;;;;;;;18.73;12.37;;;-6.40;99.90;;;;;;5082591;28;20179;-77
2022/12/13 03:06:30;;;;;;;17.40;11.77;;;-6.40;99.90;;;;;;5073391;28;20186;-77
2022/12/13 03:09:09;;;;;;;19.30;11.47;;;-6.30;99.90;;;;;;5078696;28;20210;-77
2022/12/13 03:14:36;;;;;;;19.90;14.20;;;-6.00;99.90;;;;;;5066137;28;20669;-77
2022/12/13 03:17:04;;;;;;;18.60;13.47;;;-5.90;99.90;;;;;;5071295;28;20915;-77
2022/12/13 03:19:30;;;;;;;25.17;13.80;;;-5.80;99.90;;;;;;5080988;28;20229;-77
2022/12/13 03:21:56;;;;;;;24.20;15.10;;;-5.80;99.90;;;;;;5068695;28;20581;-76
2022/12/13 03:24:21;;;;;;;20.00;14.33;;;-5.80;99.90;;;;;;5069673;28;20664;-77
2022/12/13 03:26:49;;;;;;;21.80;14.73;;;-5.70;99.90;;;;;;5079290;28;20232;-77
2022/12/13 03:29:15;;;;;;;24.80;14.63;;;-5.50;99.90;;;;;;5070829;28;20207;-76
2022/12/13 03:31:41;;;;;;;24.03;13.77;;;-5.40;99.90;;;;;;5083913;28;20198;-77
2022/12/13 03:34:07;;;;;;;18.33;12.63;;;-5.30;99.90;;;;;;5070759;28;20649;-77
2022/12/13 03:36:32;;;;;;;28.30;14.73;;;-5.20;99.90;;;;;;5065234;28;20266;-76
2022/12/13 03:38:58;;;;;;;23.97;15.37;;;-5.10;99.90;;;;;;5077855;28;20209;-77
2022/12/13 03:41:33;;;;;;;21.80;14.93;;;-5.20;99.90;;;;;;5070275;28;20209;-77
2022/12/13 03:44:03;;;;;;;25.53;15.60;;;-5.10;99.90;;;;;;5078663;28;20180;-77
2022/12/13 03:46:29;;;;;;;29.23;15.73;;;-5.00;99.90;;;;;;5070873;28;20205;-76
2022/12/13 03:48:54;;;;;;;22.13;14.67;;;-5.10;99.90;;;;;;5079741;28;20218;-77
2022/12/13 03:51:20;;;;;;;22.53;14.60;;;-5.10;99.90;;;;;;5076066;28;20226;-77
2022/12/13 03:53:45;;;;;;;18.60;13.60;;;-5.00;99.90;;;;;;5070383;28;20254;-77
2022/12/13 03:56:11;;;;;;;24.13;15.73;;;-4.90;99.90;;;;;;5067749;28;20179;-76
2022/12/13 03:58:37;;;;;;;25.20;14.90;;;-5.00;99.90;;;;;;5064433;28;20199;-77
2022/12/13 04:01:05;;;;;;;23.07;15.37;;;-5.00;99.90;;;;;;5078123;28;20269;-77
2022/12/13 04:03:30;;;;;;;22.33;14.73;;;-4.90;99.90;;;;;;5087444;28;20545;-77
2022/12/13 04:05:56;;;;;;;20.90;12.87;;;-4.90;99.90;;;;;;5074205;28;20176;-77
2022/12/13 04:08:21;;;;;;;17.10;12.10;;;-4.80;99.90;;;;;;5071571;28;20210;-77
2022/12/13 04:10:47;;;;;;;16.73;11.83;;;-4.90;99.90;;;;;;5071179;28;20203;-77
2022/12/13 04:15:57;;;;;;;15.07;11.40;;;-4.90;99.90;;;;;;5076873;28;20190;-77
2022/12/13 04:18:22;;;;;;;16.13;11.00;;;-5.00;99.90;;;;;;5080116;28;20290;-78
2022/12/13 04:20:48;;;;;;;15.03;11.17;;;-4.90;99.90;;;;;;5072248;28;20198;-77
2022/12/13 04:23:14;;;;;;;14.43;10.70;;;-4.90;99.90;;;;;;5069160;28;20183;-77
2022/12/13 04:25:41;;;;;;;15.60;10.87;;;-5.10;99.90;;;;;;5076602;28;20180;-76
2022/12/13 04:28:07;;;;;;;14.23;10.07;;;-5.20;99.90;;;;;;5074746;28;20688;-76
2022/12/13 04:30:33;;;;;;;16.37;11.60;;;-5.20;99.90;;;;;;5071009;28;20199;-77
2022/12/13 04:32:59;;;;;;;15.93;10.80;;;-5.30;99.90;;;;;;5063908;28;20179;-77
2022/12/13 04:35:25;;;;;;;15.77;10.37;;;-5.40;99.90;;;;;;5070433;28;20193;-77
2022/12/13 04:37:51;;;;;;;13.20;10.47;;;-5.30;99.90;;;;;;5070501;28;20658;-79
2022/12/13 04:40:17;;;;;;;13.80;9.73;;;-5.40;99.90;;;;;;5071933;28;20171;-76
2022/12/13 04:42:42;;;;;;;16.10;10.50;;;-5.50;99.90;;;;;;5072742;28;20263;-77
2022/12/13 04:45:13;;;;;;;14.20;9.97;;;-5.40;99.90;;;;;;5071723;28;20595;-76
2022/12/13 04:47:39;;;;;;;14.33;11.17;;;-5.30;99.90;;;;;;5070772;28;20195;-76
2022/12/13 04:50:05;;;;;;;14.60;10.23;;;-5.40;99.90;;;;;;5067945;28;20206;-75
2022/12/13 04:52:30;;;;;;;12.77;9.50;;;-5.50;99.90;;;;;;5082317;28;20172;-78
2022/12/13 04:54:56;;;;;;;15.30;10.33;;;-5.50;99.90;;;;;;5072594;28;20179;-75
2022/12/13 04:57:22;;;;;;;14.23;10.03;;;-5.50;99.90;;;;;;5077711;28;20174;-75
2022/12/13 04:59:47;;;;;;;15.13;10.23;;;-5.40;99.90;;;;;;5078478;28;20170;-76
2022/12/13 05:02:13;;;;;;;12.97;9.57;;;-5.50;99.90;;;;;;5071184;28;20241;-75
2022/12/13 05:04:39;;;;;;;12.70;10.00;;;-5.50;99.90;;;;;;5076671;28;20215;-75
2022/12/13 05:07:04;;;;;;;18.07;11.17;;;-5.50;99.90;;;;;;5078012;28;20213;-75
2022/12/13 05:09:30;;;;;;;16.20;10.23;;;-5.40;99.90;;;;;;5080390;28;20203;-76
2022/12/13 05:11:56;;;;;;;15.87;11.03;;;-5.40;99.90;;;;;;5073083;28;20171;-76
2022/12/13 05:14:21;;;;;;;16.23;10.90;;;-5.40;99.90;;;;;;5080507;28;20618;-76
2022/12/13 05:16:47;;;;;;;14.43;10.30;;;-5.50;99.90;;;;;;5079443;28;20182;-76
2022/12/13 05:19:12;;;;;;;12.50;10.00;;;-5.40;99.90;;;;;;5077583;28;20295;-75
2022/12/13 05:21:38;;;;;;;14.53;10.83;;;-5.40;99.90;;;;;;5070461;28;20176;-75
2022/12/13 05:24:05;;;;;;;17.70;10.90;;;-5.40;99.90;;;;;;5075015;28;20190;-76
2022/12/13 05:26:31;;;;;;;15.93;10.80;;;-5.30;99.90;;;;;;5080540;28;20203;-76
2022/12/13 05:28:57;;;;;;;13.47;10.70;;;-5.30;99.90;;;;;;5074120;28;20234;-75
2022/12/13 05:31:23;;;;;;;13.90;10.77;;;-5.30;99.90;;;;;;5084609;28;20244;-76
2022/12/13 05:33:49;;;;;;;17.50;11.97;;;-5.40;99.90;;;;;;5076002;28;20566;-76
2022/12/13 05:36:14;;;;;;;17.53;11.37;;;-5.40;99.90;;;;;;5076704;28;20178;-76
2022/12/13 05:38:40;;;;;;;19.57;11.33;;;-5.40;99.90;;;;;;5079509;28;20194;-76
2022/12/13 05:41:06;;;;;;;17.33;10.93;;;-5.40;99.90;;;;;;5077009;28;20179;-76
2022/12/13 05:43:31;;;;;;;17.83;11.20;;;-5.60;99.90;;;;;;5085838;28;20171;-77
2022/12/13 05:45:57;;;;;;;16.47;10.83;;;-5.70;99.90;;;;;;5077738;28;20171;-77
2022/12/13 05:48:23;;;;;;;14.07;10.47;;;-5.80;99.90;;;;;;5077372;28;20265;-77
2022/12/13 05:50:49;;;;;;;19.27;12.80;;;-5.80;99.90;;;;;;5090737;28;20209;-76
2022/12/13 05:53:16;;;;;;;15.50;10.77;;;-5.90;99.90;;;;;;5081949;28;20178;-75
2022/12/13 05:55:42;;;;;;;15.47;11.20;;;-6.00;99.90;;;;;;5077540;28;20185;-76
2022/12/13 05:58:11;;;;;;;14.97;11.00;;;-6.00;99.90;;;;;;5070354;28;20205;-76
2022/12/13 06:00:37;;;;;;;16.10;11.63;;;-6.00;99.90;;;;;;5081509;28;20250;-76
2022/12/13 06:03:03;;;;;;;14.50;11.03;;;-6.10;99.90;;;;;;5075056;28;20219;-76
2022/12/13 06:05:30;;;;;;;17.90;11.43;;;-6.20;99.90;;;;;;5085070;28;20182;-76
2022/12/13 06:07:55;;;;;;;19.40;11.93;;;-6.20;99.90;;;;;;5073216;28;20198;-76
2022/12/13 06:10:21;;;;;;;16.23;11.07;;;-6.20;99.90;;;;;;5081603;28;20211;-76
2022/12/13 06:12:47;;;;;;;19.03;12.23;;;-6.20;99.90;;;;;;5070058;28;20225;-77
2022/12/13 06:15:13;;;;;;;16.90;11.70;;;-6.10;99.90;;;;;;5079228;28;20174;-76
2022/12/13 06:17:38;;;;;;;17.70;10.87;;;-6.00;99.90;;;;;;5081182;28;20177;-77
2022/12/13 06:20:06;;;;;;;15.33;10.63;;;-6.00;99.90;;;;;;5087068;28;20650;-77
2022/12/13 06:22:32;;;;;;;17.53;11.67;;;-5.80;99.90;;;;;;5076766;28;20175;-76
2022/12/13 06:24:57;;;;;;;17.63;11.70;;;-5.80;99.90;;;;;;5074152;28;20544;-76
2022/12/13 06:27:23;;;;;;;14.77;11.73;;;-5.80;99.90;;;;;;5070978;28;20190;-77
2022/12/13 06:29:49;;;;;;;14.33;10.23;;;-5.80;99.90;;;;;;5082170;28;20206;-79
2022/12/13 06:32:14;;;;;;;18.07;11.40;;;-5.80;99.90;;;;;;5087827;28;20179;-77
2022/12/13 06:34:40;;;;;;;18.20;11.40;;;-5.90;99.90;;;;;;5083401;28;20175;-80
2022/12/13 06:37:09;;;;;;;19.10;11.97;;;-6.00;99.90;;;;;;5092430;28;20183;-79
2022/12/13 06:39:35;;;;;;;17.63;12.53;;;-6.10;99.90;;;;;;5084805;28;20731;-78
2022/12/13 06:42:04;;;;;;;16.30;10.73;;;-6.10;99.90;;;;;;5080181;28;20279;-75
2022/12/13 06:44:30;;;;;;;14.63;10.97;;;-6.30;99.90;;;;;;5077398;28;20175;-73
2022/12/13 06:46:56;;;;;;;19.90;12.50;;;-6.40;99.90;;;;;;5079726;28;20175;-76
2022/12/13 06:49:21;;;;;;;17.30;11.57;;;-6.50;99.90;;;;;;5073275;28;20237;-76
2022/12/13 06:51:47;;;;;;;21.13;12.80;;;-6.60;99.90;;;;;;5076337;28;20195;-78
2022/12/13 06:54:15;;;;;;;19.10;11.27;;;-6.50;99.90;;;;;;5094187;28;20262;-78
2022/12/13 06:56:41;;;;;;;17.90;11.33;;;-6.50;99.90;;;;;;5081340;28;20184;-77
2022/12/13 06:59:06;;;;;;;19.57;13.23;;;-6.50;99.90;;;;;;5087127;28;20218;-77
2022/12/13 07:01:32;;;;;;;24.50;13.30;;;-6.60;99.90;;;;;;5097398;28;20187;-78
2022/12/13 07:03:58;;;;;;;15.23;11.70;;;-6.70;99.90;;;;;;5074992;28;20692;-74
2022/12/13 07:06:24;;;;;;;17.20;11.17;;;-6.80;99.90;;;;;;5080235;28;20188;-77
2022/12/13 07:08:56;;;;;;;14.93;10.00;;;-6.90;99.90;;;;;;5069364;28;20215;-74
2022/12/13 07:11:24;;;;;;;15.83;10.33;;;-7.00;99.90;;;;;;5073586;28;20198;-75
2022/12/13 07:13:51;;;;;;;14.97;11.17;;;-7.00;99.90;;;;;;5083746;28;20178;-77
2022/12/13 07:16:17;;;;;;;15.93;10.60;;;-7.00;99.90;;;;;;5074497;28;20176;-76
2022/12/13 07:18:42;;;;;;;18.50;11.30;;;-6.90;99.90;;;;;;5069101;28;20199;-76
2022/12/13 07:21:10;;;;;;;20.67;12.97;;;-6.90;99.90;;;;;;5074258;28;20593;-76
2022/12/13 07:23:37;;;;;;;22.37;13.27;;;-6.90;99.90;;;;;;5082801;28;20179;-77
2022/12/13 07:26:04;;;;;;;15.93;11.60;;;-6.80;99.90;;;;;;5072320;28;20836;-77
2022/12/13 07:28:36;;;;;;;16.27;11.47;;;-6.70;99.90;;;;;;5076647;28;20202;-77
2022/12/13 07:31:04;;;;;;;17.23;11.53;;;-6.60;99.90;;;;;;5079313;28;20210;-74
2022/12/13 07:33:30;;;;;;;14.97;11.07;;;-6.60;99.90;;;;;;5066562;28;20174;-74
2022/12/13 07:36:03;;;;;;;18.53;12.10;;;-6.60;99.90;;;;;;5073382;28;20194;-73
2022/12/13 07:38:28;;;;;;;17.20;11.63;;;-6.60;99.90;;;;;;5079294;28;20250;-77
2022/12/13 07:40:57;;;;;;;14.87;11.03;;;-6.60;99.90;;;;;;5083001;28;20198;-78
2022/12/13 07:43:23;;;;;;;15.37;11.47;;;-6.60;99.90;;;;;;5064430;28;20183;-75
2022/12/13 07:45:49;;;;;;;13.03;10.60;;;-6.40;99.90;;;;;;5076464;28;20796;-74
2022/12/13 07:48:15;;;;;;;18.17;10.83;;;-6.50;99.90;;;;;;5070258;28;20341;-74
2022/12/13 07:50:41;;;;;;;12.97;10.33;;;-6.50;99.90;;;;;;5078743;28;20202;-79
2022/12/13 07:53:09;;;;;;;16.70;11.07;;;-6.30;99.90;;;;;;5088839;28;20229;-76
2022/12/13 07:55:35;;;;;;;13.97;10.17;;;-6.30;99.90;;;;;;5097382;28;20171;-77
2022/12/13 07:58:06;;;;;;;17.27;10.83;;;-6.20;99.90;;;;;;5086622;28;20602;-78
2022/12/13 08:00:33;;;;;;;12.97;10.30;;;-6.30;99.90;;;;;;5090902;28;20178;-78
2022/12/13 08:02:59;;;;;;;15.23;10.17;;;-6.30;99.90;;;;;;5089098;28;20186;-77
2022/12/13 08:05:25;;;;;;;12.27;9.50;;;-6.20;99.90;;;;;;5091479;28;20185;-79
2022/12/13 08:07:50;;;;;;;15.97;11.07;;;-6.10;99.90;;;;;;5087689;28;20219;-77
2022/12/13 08:10:16;;;;;;;12.33;9.67;;;-6.00;99.90;;;;;;5091988;28;20253;-79
2022/12/13 08:12:42;;;;;;;13.43;9.90;;;-6.00;99.90;;;;;;5086312;28;20666;-78
2022/12/13 08:15:08;;;;;;;12.20;10.23;;;-5.90;99.90;;;;;;5073284;28;20188;-76
2022/12/13 08:17:33;;;;;;;12.87;9.63;;;-5.90;99.90;;;;;;5082380;28;20654;-78
2022/12/13 08:19:59;;;;;;;15.17;10.70;;;-5.90;99.90;;;;;;5093342;28;20228;-78
2022/12/13 08:22:24;;;;;;;15.37;10.53;;;-5.90;99.90;;;;;;5083715;28;20187;-77
2022/12/13 08:24:50;;;;;;;17.03;11.00;;;-6.00;99.90;;;;;;5088256;28;20175;-78
2022/12/13 08:27:16;;;;;;;14.83;10.47;;;-6.00;99.90;;;;;;5082044;28;20188;-78
2022/12/13 08:29:42;;;;;;;13.93;10.07;;;-6.10;99.90;;;;;;5088242;28;20590;-78
2022/12/13 08:32:10;;;;;;;13.33;9.70;;;-6.20;99.90;;;;;;5086899;28;20175;-78
2022/12/13 08:34:36;;;;;;;13.73;10.13;;;-6.20;99.90;;;;;;5083444;28;20170;-78
2022/12/13 08:37:03;;;;;;;15.13;10.87;;;-6.10;99.90;;;;;;5088068;28;20183;-77
2022/12/13 08:39:35;;;;;;;12.63;9.60;;;-6.20;99.90;;;;;;5086004;28;20194;-79
2022/12/13 08:42:09;;;;;;;18.97;11.07;;;-6.10;99.90;;;;;;5086039;28;20557;-79
2022/12/13 08:44:35;;;;;;;13.30;9.90;;;-6.00;99.90;;;;;;5090625;28;20206;-77
2022/12/13 08:47:01;;;;;;;13.93;10.03;;;-5.90;99.90;;;;;;5093854;28;20187;-78
2022/12/13 08:49:26;;;;;;;13.40;10.57;;;-5.80;99.90;;;;;;5090776;28;20195;-78
2022/12/13 08:51:52;;;;;;;14.37;10.20;;;-5.80;99.90;;;;;;5089064;28;20648;-78
2022/12/13 08:54:17;;;;;;;13.07;9.80;;;-5.70;99.90;;;;;;5092578;28;20182;-77
2022/12/13 08:56:43;;;;;;;13.67;10.10;;;-5.40;99.90;;;;;;5086706;28;20186;-79
2022/12/13 08:59:08;;;;;;;13.53;9.33;;;-4.60;99.90;;;;;;5088220;28;20226;-79
2022/12/13 09:01:34;;;;;;;13.63;9.90;;;-3.90;99.90;;;;;;5093390;28;20191;-78
2022/12/13 09:04:00;;;;;;;13.23;9.80;;;-3.40;99.90;;;;;;5094239;28;20179;-78
2022/12/13 09:06:25;;;;;;;15.77;10.43;;;-2.90;99.90;;;;;;5102406;28;20700;-78
2022/12/13 09:08:54;;;;;;;12.70;9.60;;;-2.20;99.90;;;;;;5101972;28;20206;-78
2022/12/13 09:11:20;;;;;;;13.30;10.27;;;-1.80;99.90;;;;;;5105363;28;20191;-78
2022/12/13 09:13:47;;;;;;;11.70;8.97;;;-1.50;99.90;;;;;;5099774;28;20198;-77
2022/12/13 09:16:18;;;;;;;16.37;9.83;;;-1.50;99.90;;;;;;5101401;28;20567;-79
2022/12/13 09:18:45;;;;;;;13.17;10.10;;;-1.50;99.90;;;;;;5104859;28;20194;-79
2022/12/13 09:21:13;;;;;;;14.43;10.50;;;-1.60;99.90;;;;;;5099765;28;20182;-78
2022/12/13 09:23:42;;;;;;;19.13;10.73;;;-1.50;99.90;;;;;;5099182;28;20167;-79
2022/12/13 09:26:09;;;;;;;15.60;9.73;;;-0.50;99.90;;;;;;5099905;28;20186;-79
2022/12/13 09:28:36;;;;;;;14.70;9.83;;;1.30;99.90;;;;;;5098080;28;20195;-76
2022/12/13 09:31:16;;;;;;;15.23;10.70;;;3.20;99.90;;;;;;5101902;28;20297;-77
2022/12/13 09:33:43;;;;;;;18.40;10.10;;;5.10;94.40;;;;;;5095660;28;20178;-79
2022/12/13 09:36:15;;;;;;;14.13;10.47;;;6.40;85.50;;;;;;5098627;28;20199;-79
2022/12/13 09:38:40;;;;;;;11.82;9.50;;;7.50;77.90;;;;;;5095052;28;20274;-79
2022/12/13 09:41:25;;;;;;;16.00;10.07;;;8.30;73.00;;;;;;5096833;28;20215;-80
2022/12/13 09:44:16;;;;;;;15.82;10.95;;;9.30;67.60;;;;;;5097699;28;20170;-79
2022/12/13 09:46:45;;;;;;;13.70;10.38;;;10.20;61.20;;;;;;5089522;28;20181;-79
2022/12/13 09:49:16;;;;;;;15.52;10.65;;;10.90;59.00;;;;;;5083374;28;20219;-80
2022/12/13 09:51:54;;;;;;;17.63;10.52;;;11.40;57.00;;;;;;5099820;28;20200;-80
2022/12/13 09:54:24;;;;;;;13.63;11.02;;;11.60;55.30;;;;;;5095108;28;20190;-79
2022/12/13 09:56:50;;;;;;;16.85;11.20;;;12.00;53.20;;;;;;5096318;28;20182;-79
2022/12/13 09:59:34;;;;;;;12.95;10.23;;;12.10;52.60;;;;;;5089763;28;20207;-79
2022/12/13 10:02:24;;;;;;;15.70;10.75;;;12.40;52.00;;;;;;5094441;28;20195;-79
2022/12/13 10:04:51;;;;;;;20.20;10.88;;;12.50;51.00;;;;;;5090610;28;20178;-79
2022/12/13 10:07:22;;;;;;;14.55;10.73;;;12.70;50.80;;;;;;5079783;28;20178;-79
2022/12/13 10:09:51;;;;;;;12.02;9.73;;;12.80;50.10;;;;;;5080480;28;20195;-80
2022/12/13 10:12:17;;;;;;;17.02;10.27;;;13.00;50.40;;;;;;5076669;28;20618;-79
2022/12/13 10:14:49;;;;;;;11.50;10.30;;;13.60;49.40;;;;;;5080195;28;20210;-79
2022/12/13 10:17:18;;;;;;;10.45;9.27;;;14.10;48.40;;;;;;5068263;28;20208;-79
2022/12/13 10:19:46;;;;;;;14.40;10.80;;;14.40;47.20;;;;;;5080068;28;20218;-79
2022/12/13 10:22:15;;;;;;;10.93;9.70;;;14.70;46.60;;;;;;5072831;28;20192;-79
2022/12/13 10:24:53;;;;;;;12.75;10.77;;;14.70;46.10;;;;;;5077995;28;20182;-79
2022/12/13 10:27:24;;;;;;;11.13;9.70;;;15.00;45.20;;;;;;5079376;28;20180;-79
2022/12/13 10:29:59;;;;;;;11.07;9.82;;;14.90;44.80;;;;;;5082241;28;20243;-79
2022/12/13 10:32:25;;;;;;;14.18;10.70;;;14.70;45.20;;;;;;5076571;28;20200;-79
2022/12/13 10:34:54;;;;;;;10.88;9.48;;;14.60;45.70;;;;;;5071833;28;20203;-79
2022/12/13 10:37:22;;;;;;;12.35;9.27;;;15.10;44.90;;;;;;5080959;28;20312;-79
2022/12/13 10:39:48;;;;;;;10.38;9.30;;;15.30;44.60;;;;;;5082663;28;20198;-79
2022/12/13 10:42:16;;;;;;;12.48;9.60;;;15.50;45.10;;;;;;5078592;28;20680;-79
2022/12/13 10:44:42;;;;;;;10.52;9.43;;;15.70;44.40;;;;;;5076080;28;20555;-78
2022/12/13 10:47:25;;;;;;;9.70;8.70;;;16.50;42.60;;;;;;5080886;28;20262;-78
2022/12/13 10:50:00;;;;;;;10.25;9.27;;;16.60;42.40;;;;;;5071080;28;20222;-78
2022/12/13 10:52:30;;;;;;;11.13;9.40;;;16.90;42.30;;;;;;5074314;28;20278;-78
2022/12/13 10:54:58;;;;;;;9.88;8.90;;;16.90;42.20;;;;;;5078105;28;20176;-78
2022/12/13 10:57:24;;;;;;;10.27;9.15;;;16.90;41.30;;;;;;5084569;28;20182;-77
2022/12/13 10:59:51;;;;;;;9.73;8.73;;;16.60;41.50;;;;;;5071786;28;20175;-78
2022/12/13 11:02:37;;;;;;;9.32;8.30;;;16.80;42.00;;;;;;5081423;28;20187;-78
2022/12/13 11:05:36;;;;;;;10.20;8.20;;;17.00;40.90;;;;;;5072523;28;20210;-78
2022/12/13 11:08:25;;;;;;;9.27;8.38;;;16.80;40.60;;;;;;5045891;28;20211;-78
2022/12/13 11:11:05;;;;;;;13.93;8.93;;;16.60;40.90;;;;;;5077794;28;20194;-78
2022/12/13 11:13:53;;;;;;;10.55;8.60;;;16.80;41.60;;;;;;5065172;28;20167;-77
2022/12/13 11:16:39;;;;;;;10.63;8.25;;;17.30;40.70;;;;;;5080555;28;20587;-77
2022/12/13 11:19:27;;;;;;;10.77;8.73;;;17.40;40.30;;;;;;5079807;28;20209;-77
2022/12/13 11:21:54;;;;;;;12.63;9.43;;;17.20;40.20;;;;;;5079887;28;20525;-77
2022/12/13 11:24:25;;;;;;;10.18;8.45;;;17.40;40.80;;;;;;5077773;28;20248;-81
2022/12/13 11:27:19;;;;;;;11.73;9.45;;;17.70;40.40;;;;;;5076195;28;20520;-78
2022/12/13 11:30:10;;;;;;;10.57;9.13;;;17.60;40.10;;;;;;5073777;28;20286;-77
2022/12/13 11:32:46;;;;;;;12.68;8.70;;;17.70;40.20;;;;;;5080342;28;20168;-78
2022/12/13 11:35:41;;;;;;;9.02;7.68;;;17.60;40.30;;;;;;5072754;28;20184;-78
2022/12/13 11:38:27;;;;;;;14.95;8.18;;;17.70;40.00;;;;;;5041122;28;20229;-78
2022/12/13 11:40:58;;;;;;;9.43;7.28;;;17.70;39.70;;;;;;5078207;28;20191;-78
2022/12/13 11:44:10;;;;;;;7.47;6.78;;;17.90;38.50;;;;;;5083778;28;20174;-79
2022/12/13 11:46:48;;;;;;;8.43;6.80;;;17.80;39.20;;;;;;5071799;28;20184;-78
2022/12/13 11:49:19;;;;;;;7.68;5.30;;;17.90;39.00;;;;;;5084609;28;20202;-77
2022/12/13 11:51:52;;;;;;;7.22;5.30;;;18.20;37.20;;;;;;5078593;28;20253;-79
2022/12/13 11:54:56;;;;;;;7.93;6.05;;;18.10;37.60;;;;;;5074660;28;20669;-78
2022/12/13 11:57:40;;;;;;;7.78;5.85;;;18.30;38.10;;;;;;5063288;28;20653;-78
2022/12/13 12:00:36;;;;;;;7.32;6.15;;;18.60;38.30;;;;;;5084021;28;20182;-78
2022/12/13 12:03:18;;;;;;;8.63;6.10;;;18.40;38.00;;;;;;5074439;28;20176;-78
2022/12/13 12:05:56;;;;;;;8.32;6.05;;;18.50;37.60;;;;;;5070164;28;20202;-78
2022/12/13 12:08:27;;;;;;;10.52;5.60;;;18.50;37.20;;;;;;5079031;28;20227;-78
2022/12/13 12:11:10;;;;;;;6.75;5.53;;;17.70;37.30;;;;;;5080491;28;20203;-78
2022/12/13 12:13:44;;;;;;;12.02;5.50;;;17.60;38.30;;;;;;5074355;28;20649;-78
2022/12/13 12:16:32;;;;;;;8.43;5.65;;;18.00;37.70;;;;;;5075036;28;20205;-78
2022/12/13 12:18:58;;;;;;;6.40;5.65;;;17.70;37.60;;;;;;5080860;28;20182;-78
2022/12/13 12:21:55;;;;;;;11.93;6.43;;;17.90;38.20;;;;;;5081305;28;20175;-78
2022/12/13 12:24:39;;;;;;;7.50;5.75;;;17.70;38.50;;;;;;5081892;28;20218;-78
2022/12/13 12:27:39;;;;;;;9.55;6.35;;;17.30;38.80;;;;;;5080804;28;20202;-81
2022/12/13 12:30:08;;;;;;;8.07;6.03;;;16.80;38.90;;;;;;5079408;28;20252;-78
2022/12/13 12:32:39;;;;;;;6.78;6.15;;;16.30;39.60;;;;;;5080294;28;20175;-78
2022/12/13 12:35:43;;;;;;;10.13;6.10;;;15.90;39.80;;;;;;5079352;28;20248;-81
2022/12/13 12:38:17;;;;;;;8.25;6.22;;;14.90;39.90;;;;;;5073408;28;20213;-78
2022/12/13 12:40:55;;;;;;;8.52;6.70;;;14.30;41.60;;;;;;5081996;28;20179;-78
2022/12/13 12:43:37;;;;;;;7.45;6.22;;;13.90;42.20;;;;;;5080167;28;20182;-78
2022/12/13 12:46:36;;;;;;;7.22;5.90;;;12.80;43.30;;;;;;5076330;28;20545;-78
2022/12/13 12:49:21;;;;;;;8.63;6.32;;;12.00;44.80;;;;;;5074357;28;20341;-78
2022/12/13 12:52:08;;;;;;;9.27;6.03;;;11.20;45.00;;;;;;5083516;28;20174;-78
2022/12/13 12:54:48;;;;;;;13.18;5.82;;;10.60;46.60;;;;;;5071990;28;20179;-79